Time;durP1;ratioP1;P1;durP2;ratioP2;P2;SDS_P1;SDS_P2;PMS_P1;PMS_P2;Temp;Humidity;BMP_temperature;BMP_pressure;BME280_temperature;BME280_humidity;BME280_pressure;Samples;Min_cycle;Max_cycle;Signal;HPM_P1;HPM_P2
2020/12/01 12:06:32;;;;;;;42.58;21.60;;;13.30;44.90;;;;;;5074232;27;20334;-41
2020/12/01 12:08:58;;;;;;;40.42;20.38;;;8.40;57.40;;;;;;5070802;28;20021;-47
2020/12/01 12:11:24;;;;;;;42.45;19.50;;;7.60;57.50;;;;;;5072040;28;20430;-46
2020/12/01 12:13:50;;;;;;;33.88;17.27;;;7.20;58.00;;;;;;5069662;28;20017;-44
2020/12/01 12:16:18;;;;;;;42.97;20.67;;;6.80;58.60;;;;;;5022117;28;20029;-41
2020/12/01 12:18:45;;;;;;;51.85;24.38;;;6.50;59.50;;;;;;5067372;28;20104;-43
2020/12/01 12:21:12;;;;;;;40.78;20.08;;;6.20;60.20;;;;;;5069766;28;20051;-43
2020/12/01 12:23:37;;;;;;;43.75;19.90;;;6.00;60.90;;;;;;5069823;28;20075;-44
2020/12/01 12:26:04;;;;;;;41.50;19.55;;;5.80;61.50;;;;;;5070519;28;20048;-42
2020/12/01 12:28:29;;;;;;;46.20;21.15;;;5.70;62.10;;;;;;5069981;28;20309;-41
2020/12/01 12:30:55;;;;;;;41.90;19.08;;;5.50;62.70;;;;;;5069670;28;20082;-40
2020/12/01 12:33:21;;;;;;;43.72;20.55;;;5.40;63.20;;;;;;5069771;28;20078;-42
2020/12/01 12:35:51;;;;;;;52.00;21.77;;;5.30;63.50;;;;;;5070433;28;20060;-40
2020/12/01 12:38:18;;;;;;;46.90;21.33;;;5.10;64.00;;;;;;5069095;28;20036;-40
2020/12/01 12:40:47;;;;;;;41.25;18.77;;;5.00;64.60;;;;;;5069897;28;20187;-40
2020/12/01 12:43:16;;;;;;;45.40;21.40;;;4.90;64.70;;;;;;5068644;28;20510;-40
2020/12/01 12:45:42;;;;;;;50.33;22.90;;;4.90;65.40;;;;;;5068847;28;20044;-41
2020/12/01 12:48:08;;;;;;;47.35;20.95;;;4.80;65.50;;;;;;5070311;28;20012;-41
2020/12/01 12:50:34;;;;;;;57.05;25.00;;;4.80;65.90;;;;;;5071319;28;20075;-43
2020/12/01 12:53:00;;;;;;;49.38;21.00;;;4.70;66.30;;;;;;5069876;28;20052;-45
2020/12/01 12:55:25;;;;;;;49.50;22.10;;;4.70;66.60;;;;;;5051736;28;20085;-44
2020/12/01 12:57:51;;;;;;;57.55;25.33;;;4.60;66.80;;;;;;5070241;28;20073;-44
2020/12/01 13:00:17;;;;;;;48.38;20.52;;;4.60;67.10;;;;;;5070257;28;20024;-44
2020/12/01 13:02:42;;;;;;;44.80;20.98;;;4.60;67.30;;;;;;5069221;28;20024;-42
2020/12/01 13:05:08;;;;;;;41.97;19.77;;;4.60;67.30;;;;;;5069520;28;20057;-40
2020/12/01 13:07:34;;;;;;;45.70;20.95;;;4.60;67.40;;;;;;5069960;28;20042;-42
2020/12/01 13:10:00;;;;;;;48.35;22.42;;;4.60;67.60;;;;;;5069908;28;20339;-41
2020/12/01 13:12:25;;;;;;;45.22;20.38;;;4.60;67.70;;;;;;5070776;28;20017;-41
2020/12/01 13:14:51;;;;;;;50.97;22.70;;;4.60;68.50;;;;;;5071380;28;20109;-44
2020/12/01 13:17:17;;;;;;;56.70;23.60;;;4.60;67.90;;;;;;5058383;28;20031;-46
2020/12/01 13:19:44;;;;;;;52.08;25.17;;;4.60;68.20;;;;;;5057470;28;20029;-44
2020/12/01 13:22:10;;;;;;;49.15;21.50;;;4.60;68.30;;;;;;5055661;28;20044;-44
2020/12/01 13:24:36;;;;;;;42.55;20.13;;;4.60;68.30;;;;;;5053984;28;20448;-44
2020/12/01 13:27:02;;;;;;;62.92;27.50;;;4.60;68.60;;;;;;5055557;28;20079;-42
2020/12/01 13:29:27;;;;;;;56.50;26.20;;;4.60;68.60;;;;;;5055467;28;20039;-40
2020/12/01 13:31:53;;;;;;;49.60;22.95;;;4.60;68.80;;;;;;5048578;28;20017;-41
2020/12/01 13:34:19;;;;;;;55.88;25.23;;;4.60;68.90;;;;;;5054469;28;20339;-40
2020/12/01 13:36:44;;;;;;;52.50;23.67;;;4.60;68.90;;;;;;5046350;28;20020;-41
2020/12/01 13:39:10;;;;;;;54.85;25.33;;;4.60;69.00;;;;;;5053708;28;20024;-40
2020/12/01 13:41:36;;;;;;;57.25;26.15;;;4.60;69.10;;;;;;5053467;28;20079;-41
2020/12/01 13:44:03;;;;;;;46.90;24.48;;;4.60;68.90;;;;;;5054387;28;20021;-44
2020/12/01 13:46:28;;;;;;;44.50;21.23;;;4.60;69.10;;;;;;5053955;28;20045;-44
2020/12/01 13:48:54;;;;;;;52.53;25.27;;;4.60;69.20;;;;;;5054510;28;20032;-47
2020/12/01 13:51:20;;;;;;;50.70;26.30;;;4.60;69.30;;;;;;5054770;28;20075;-45
2020/12/01 13:53:46;;;;;;;56.25;24.90;;;4.60;69.30;;;;;;5054651;28;20540;-44
2020/12/01 13:56:11;;;;;;;49.58;24.33;;;4.60;69.40;;;;;;5056263;28;20025;-44
2020/12/01 13:58:37;;;;;;;43.55;20.77;;;4.60;69.40;;;;;;5053302;28;20055;-45
2020/12/01 14:01:04;;;;;;;46.03;22.20;;;4.60;69.30;;;;;;5054856;28;20033;-44
2020/12/01 14:03:29;;;;;;;55.58;26.90;;;4.60;69.30;;;;;;5051606;28;20056;-44
2020/12/01 14:05:55;;;;;;;48.10;23.67;;;4.60;69.40;;;;;;5052421;28;20076;-44
2020/12/01 14:08:21;;;;;;;38.70;20.23;;;4.60;69.50;;;;;;5051787;28;20032;-45
2020/12/01 14:10:47;;;;;;;37.45;22.05;;;4.60;69.50;;;;;;5035414;28;20041;-41
2020/12/01 14:13:14;;;;;;;38.55;21.58;;;4.60;69.60;;;;;;5053742;28;20521;-42
2020/12/01 14:15:40;;;;;;;44.75;22.80;;;4.60;69.60;;;;;;5052984;28;20410;-41
2020/12/01 14:18:06;;;;;;;42.97;22.17;;;4.60;69.70;;;;;;5053254;28;20027;-41
2020/12/01 14:20:32;;;;;;;37.88;20.30;;;4.60;69.80;;;;;;5035028;28;20032;-41
2020/12/01 14:22:58;;;;;;;36.85;20.67;;;4.60;69.80;;;;;;5054929;28;20021;-42
2020/12/01 14:25:24;;;;;;;31.27;18.50;;;4.60;69.70;;;;;;5052021;28;20547;-41
2020/12/01 14:27:49;;;;;;;32.78;18.33;;;4.60;69.60;;;;;;5050230;28;20124;-42
2020/12/01 14:30:18;;;;;;;33.72;19.27;;;4.60;69.70;;;;;;5053542;28;20025;-41
2020/12/01 14:32:44;;;;;;;38.00;20.98;;;4.60;69.80;;;;;;5054435;28;20060;-41
2020/12/01 14:35:13;;;;;;;36.33;19.52;;;4.60;69.80;;;;;;5055269;28;20025;-41
2020/12/01 14:37:38;;;;;;;33.42;19.50;;;4.60;69.90;;;;;;5055812;28;20098;-41
2020/12/01 14:40:05;;;;;;;30.90;18.88;;;4.60;70.00;;;;;;5055735;28;20087;-41
2020/12/01 14:42:31;;;;;;;35.60;20.63;;;4.60;70.10;;;;;;5055801;28;20028;-41
2020/12/01 14:44:57;;;;;;;30.40;18.55;;;4.60;70.10;;;;;;5054601;28;20037;-40
2020/12/01 14:47:32;;;;;;;34.90;20.30;;;4.60;70.20;;;;;;5055771;28;20453;-42
2020/12/01 14:50:36;;;;;;;29.48;17.80;;;4.60;70.40;;;;;;5056651;28;20040;-40
2020/12/01 14:53:20;;;;;;;34.28;19.80;;;4.60;70.20;;;;;;5056203;28;20373;-40
2020/12/01 14:56:06;;;;;;;36.35;20.48;;;4.60;70.10;;;;;;5056020;28;20035;-46
2020/12/01 14:59:12;;;;;;;31.67;19.75;;;4.60;70.10;;;;;;5055799;28;20029;-45
2020/12/01 15:01:46;;;;;;;34.70;19.10;;;4.60;70.10;;;;;;5052458;28;20037;-41
2020/12/01 15:04:30;;;;;;;34.33;20.10;;;4.60;70.00;;;;;;5053717;28;20017;-41
2020/12/01 15:07:14;;;;;;;47.55;26.80;;;4.50;70.20;;;;;;5053650;28;20028;-42
2020/12/01 15:10:19;;;;;;;33.75;18.48;;;4.50;70.40;;;;;;5052874;28;20036;-41
2020/12/01 15:12:51;;;;;;;35.10;19.00;;;4.50;70.40;;;;;;5053610;28;20490;-41
2020/12/01 15:15:25;;;;;;;34.92;19.40;;;4.50;70.20;;;;;;5053546;28;20444;-41
2020/12/01 15:17:56;;;;;;;35.97;21.42;;;4.50;70.30;;;;;;5054644;28;20036;-43
2020/12/01 15:20:25;;;;;;;38.85;19.75;;;4.50;70.40;;;;;;5054899;28;20080;-43
2020/12/01 15:23:08;;;;;;;35.28;20.15;;;4.50;70.50;;;;;;5053938;28;20021;-41
2020/12/01 15:25:35;;;;;;;34.05;18.88;;;4.50;70.50;;;;;;5056416;28;20037;-41
2020/12/01 15:28:11;;;;;;;27.23;17.13;;;4.50;70.40;;;;;;5056823;28;20123;-45
2020/12/01 15:30:36;;;;;;;26.52;16.65;;;4.40;70.20;;;;;;5055524;28;20025;-46
2020/12/01 15:33:04;;;;;;;34.70;19.30;;;4.40;70.10;;;;;;5055675;28;20075;-46
2020/12/01 15:35:37;;;;;;;33.78;19.77;;;4.40;70.80;;;;;;5055604;28;20316;-45
2020/12/01 15:38:18;;;;;;;26.95;16.85;;;4.40;70.50;;;;;;5055145;28;20115;-46
2020/12/01 15:40:52;;;;;;;30.15;17.63;;;4.30;70.50;;;;;;5055376;28;20485;-45
2020/12/01 15:43:27;;;;;;;32.17;16.85;;;4.30;70.40;;;;;;5055506;28;20031;-45
2020/12/01 15:45:55;;;;;;;30.50;18.02;;;4.30;70.40;;;;;;5055652;28;20103;-44
2020/12/01 15:48:23;;;;;;;33.78;18.88;;;4.30;70.60;;;;;;5054317;28;20032;-41
2020/12/01 15:51:24;;;;;;;23.52;14.13;;;4.30;70.80;;;;;;5056066;28;20039;-41
2020/12/01 15:53:54;;;;;;;29.77;17.30;;;4.30;70.80;;;;;;5037597;28;20060;-41
2020/12/01 15:56:48;;;;;;;21.85;12.88;;;4.20;70.70;;;;;;5054836;28;20048;-45
2020/12/01 16:00:05;;;;;;;31.08;16.65;;;4.30;70.80;;;;;;5053424;28;20033;-44
2020/12/01 16:03:04;;;;;;;24.58;14.93;;;4.30;70.90;;;;;;5011203;28;20372;-44
2020/12/01 16:05:45;;;;;;;25.48;14.95;;;4.30;70.80;;;;;;5010182;28;20069;-45
2020/12/01 16:08:11;;;;;;;26.92;16.27;;;4.30;70.80;;;;;;5010575;28;20038;-45
2020/12/01 16:11:27;;;;;;;20.30;13.18;;;4.30;70.50;;;;;;5008780;28;20041;-45
2020/12/01 16:14:17;;;;;;;25.45;15.55;;;4.20;70.70;;;;;;5008119;28;20034;-44
2020/12/01 16:16:48;;;;;;;24.92;14.73;;;4.20;70.90;;;;;;5052043;28;20032;-44
2020/12/01 16:19:45;;;;;;;22.92;14.25;;;4.20;70.90;;;;;;5052848;28;20055;-44
2020/12/01 16:22:10;;;;;;;26.08;15.32;;;4.20;71.10;;;;;;5040249;28;20061;-45
2020/12/01 16:24:41;;;;;;;30.00;17.83;;;4.20;71.00;;;;;;5054201;28;20472;-47
2020/12/01 16:27:09;;;;;;;23.33;15.65;;;4.20;71.20;;;;;;5055038;28;20032;-45
2020/12/01 16:29:50;;;;;;;27.60;16.85;;;4.20;71.20;;;;;;5053450;28;20036;-47
2020/12/01 16:32:29;;;;;;;28.17;16.85;;;4.20;71.50;;;;;;5052086;28;20032;-45
2020/12/01 16:34:58;;;;;;;26.98;15.75;;;4.30;71.50;;;;;;5053205;28;20115;-41
2020/12/01 16:37:56;;;;;;;26.85;15.93;;;4.30;71.30;;;;;;5053281;28;20112;-41
2020/12/01 16:41:11;;;;;;;25.00;13.90;;;4.30;71.30;;;;;;5053062;28;20083;-42
2020/12/01 16:43:55;;;;;;;24.73;14.98;;;4.30;71.30;;;;;;5029880;28;20056;-41
2020/12/01 16:46:39;;;;;;;24.27;13.27;;;4.30;71.10;;;;;;5052974;28;20045;-41
2020/12/01 16:49:19;;;;;;;28.05;15.77;;;4.30;71.10;;;;;;5054823;28;20183;-40
2020/12/01 16:51:59;;;;;;;28.52;13.95;;;4.30;71.00;;;;;;5055695;28;20040;-41
2020/12/01 16:54:57;;;;;;;25.90;14.60;;;4.30;71.00;;;;;;5057522;28;20052;-46
2020/12/01 16:57:44;;;;;;;23.90;13.70;;;4.20;70.90;;;;;;5057426;28;20493;-41
2020/12/01 17:00:45;;;;;;;29.58;16.90;;;4.20;70.80;;;;;;5056683;28;20120;-40
2020/12/01 17:03:16;;;;;;;31.58;14.93;;;4.20;71.00;;;;;;5058295;28;20025;-41
2020/12/01 17:06:10;;;;;;;22.98;14.05;;;4.20;70.90;;;;;;5057203;28;20048;-41
2020/12/01 17:08:35;;;;;;;27.08;15.77;;;4.20;71.00;;;;;;5057105;28;20090;-41
2020/12/01 17:11:03;;;;;;;25.27;14.63;;;4.20;70.90;;;;;;5058176;28;20112;-41
2020/12/01 17:13:47;;;;;;;27.85;16.52;;;4.20;71.00;;;;;;5058018;28;20020;-41
2020/12/01 17:16:37;;;;;;;24.50;15.10;;;4.30;71.00;;;;;;5058764;28;20040;-41
2020/12/01 17:19:03;;;;;;;23.83;14.13;;;4.20;71.00;;;;;;5057477;28;20100;-44
2020/12/01 17:21:31;;;;;;;25.55;15.73;;;4.20;71.40;;;;;;5056884;28;20124;-44
2020/12/01 17:23:59;;;;;;;28.88;17.42;;;4.20;71.00;;;;;;5057301;28;20028;-45
2020/12/01 17:26:27;;;;;;;28.90;16.70;;;4.20;71.10;;;;;;5058217;28;20135;-44
2020/12/01 17:29:28;;;;;;;24.88;14.82;;;4.20;71.30;;;;;;5057491;28;20057;-44
2020/12/01 17:32:07;;;;;;;23.58;13.57;;;4.20;71.30;;;;;;5055101;28;20412;-44
2020/12/01 17:34:45;;;;;;;27.35;16.02;;;4.20;71.10;;;;;;5057296;28;20033;-46
2020/12/01 17:37:43;;;;;;;28.33;15.57;;;4.20;71.20;;;;;;5057279;28;20067;-47
2020/12/01 17:40:37;;;;;;;29.85;17.02;;;4.20;71.20;;;;;;5058114;28;20086;-44
2020/12/01 17:43:50;;;;;;;27.98;16.42;;;4.20;71.20;;;;;;5057076;28;20053;-44
2020/12/01 17:46:25;;;;;;;37.28;19.77;;;4.10;71.20;;;;;;4994462;28;20210;-45
2020/12/01 17:48:58;;;;;;;29.80;16.17;;;4.10;71.40;;;;;;5047659;28;20029;-45
2020/12/01 17:51:47;;;;;;;27.17;15.07;;;4.10;71.50;;;;;;5056880;28;20423;-45
2020/12/01 17:54:23;;;;;;;26.95;15.98;;;4.10;71.40;;;;;;5056096;28;20090;-45
2020/12/01 17:56:51;;;;;;;37.90;20.00;;;4.10;71.40;;;;;;5057432;28;20344;-44
2020/12/01 17:59:20;;;;;;;28.40;16.50;;;4.10;71.50;;;;;;5056581;28;20032;-47
2020/12/01 18:01:48;;;;;;;31.05;16.60;;;4.10;71.60;;;;;;5057379;28;20046;-45
2020/12/01 18:04:15;;;;;;;30.15;17.70;;;4.20;71.80;;;;;;5056561;28;20021;-46
2020/12/01 18:06:42;;;;;;;27.85;15.68;;;4.10;71.60;;;;;;5057439;28;20044;-44
2020/12/01 18:09:12;;;;;;;34.85;17.83;;;4.10;71.50;;;;;;5057134;28;20324;-44
2020/12/01 18:11:53;;;;;;;39.28;19.65;;;4.10;71.60;;;;;;5057560;28;20399;-45
2020/12/01 18:14:37;;;;;;;32.00;18.35;;;4.10;71.60;;;;;;5056652;28;20115;-45
2020/12/01 18:17:08;;;;;;;32.55;17.95;;;4.20;71.70;;;;;;5057217;28;20052;-45
2020/12/01 18:19:55;;;;;;;32.55;17.30;;;4.20;71.80;;;;;;5056896;28;20063;-47
2020/12/01 18:22:32;;;;;;;32.35;17.77;;;4.20;71.80;;;;;;5057413;28;20186;-44
2020/12/01 18:25:22;;;;;;;34.53;16.90;;;4.20;71.80;;;;;;5057138;28;20371;-44
2020/12/01 18:27:52;;;;;;;34.45;19.70;;;4.20;71.90;;;;;;5056430;28;20158;-45
2020/12/01 18:30:23;;;;;;;29.00;16.70;;;4.20;71.80;;;;;;5056768;28;20033;-44
2020/12/01 18:33:10;;;;;;;30.02;17.35;;;4.20;71.80;;;;;;5056484;28;20254;-45
2020/12/01 18:35:42;;;;;;;36.28;17.88;;;4.20;71.70;;;;;;5057058;28;20082;-44
2020/12/01 18:38:18;;;;;;;30.88;17.10;;;4.30;71.70;;;;;;5056653;28;20102;-44
2020/12/01 18:40:46;;;;;;;29.02;16.90;;;4.30;71.80;;;;;;5056977;28;20044;-44
2020/12/01 18:43:49;;;;;;;36.13;18.77;;;4.30;71.70;;;;;;5056494;28;20032;-45
2020/12/01 18:46:16;;;;;;;32.85;17.33;;;4.30;71.70;;;;;;5057072;28;20095;-47
2020/12/01 18:48:41;;;;;;;32.08;18.00;;;4.20;71.60;;;;;;5056234;28;20028;-45
2020/12/01 18:51:08;;;;;;;32.75;18.80;;;4.30;71.70;;;;;;5056418;28;20037;-44
2020/12/01 18:53:36;;;;;;;28.15;17.05;;;4.30;71.80;;;;;;5055748;28;20025;-46
2020/12/01 18:56:03;;;;;;;34.22;17.75;;;4.30;71.80;;;;;;5056950;28;20420;-48
2020/12/01 18:58:31;;;;;;;30.05;16.80;;;4.30;71.60;;;;;;5056031;28;20036;-44
2020/12/01 19:00:59;;;;;;;29.60;15.80;;;4.30;71.60;;;;;;5056958;28;20045;-45
2020/12/01 19:03:32;;;;;;;31.20;17.38;;;4.30;71.50;;;;;;5056342;28;20025;-45
2020/12/01 19:05:59;;;;;;;44.72;22.80;;;4.30;71.60;;;;;;5037002;28;20067;-45
2020/12/01 19:08:25;;;;;;;27.27;16.35;;;4.30;71.50;;;;;;5055893;28;20025;-44
2020/12/01 19:10:52;;;;;;;41.85;21.10;;;4.40;71.60;;;;;;5056241;28;20033;-44
2020/12/01 19:13:19;;;;;;;34.45;19.60;;;4.40;71.50;;;;;;5056154;28;20355;-44
2020/12/01 19:15:45;;;;;;;26.90;15.63;;;4.40;71.50;;;;;;5055595;28;20381;-45
2020/12/01 19:18:11;;;;;;;29.23;16.38;;;4.40;71.40;;;;;;5055899;28;20024;-47
2020/12/01 19:20:37;;;;;;;37.15;16.85;;;4.40;71.40;;;;;;5056291;28;20029;-48
2020/12/01 19:23:05;;;;;;;35.85;18.38;;;4.40;71.30;;;;;;5055627;28;20029;-45
2020/12/01 19:25:31;;;;;;;33.95;17.95;;;4.40;71.20;;;;;;5055843;28;20079;-44
2020/12/01 19:27:56;;;;;;;33.60;17.45;;;4.30;71.00;;;;;;5055867;28;20021;-45
2020/12/01 19:30:22;;;;;;;33.45;18.15;;;4.30;71.20;;;;;;5056005;28;20122;-43
2020/12/01 19:32:48;;;;;;;30.92;17.40;;;4.30;71.20;;;;;;5055869;28;20112;-44
2020/12/01 19:35:19;;;;;;;29.60;16.70;;;4.30;71.30;;;;;;5055758;28;20107;-43
2020/12/01 19:37:46;;;;;;;31.83;15.73;;;4.30;71.20;;;;;;5055722;28;20107;-44
2020/12/01 19:40:12;;;;;;;33.20;17.08;;;4.30;71.10;;;;;;5055822;28;20072;-43
2020/12/01 19:42:37;;;;;;;31.35;15.68;;;4.30;71.30;;;;;;5055472;28;20079;-46
2020/12/01 19:45:05;;;;;;;29.17;16.40;;;4.30;71.30;;;;;;5055879;28;20243;-43
2020/12/01 19:47:31;;;;;;;33.70;17.40;;;4.30;71.30;;;;;;5055466;28;20025;-44
2020/12/01 19:49:57;;;;;;;34.65;17.83;;;4.30;71.30;;;;;;5055420;28;20044;-44
2020/12/01 19:52:22;;;;;;;34.58;18.52;;;4.20;71.30;;;;;;5055372;28;20036;-45
2020/12/01 19:54:48;;;;;;;35.50;17.98;;;4.30;71.40;;;;;;5055827;28;20033;-45
2020/12/01 19:57:16;;;;;;;45.80;23.25;;;4.30;71.30;;;;;;5055211;28;20028;-46
2020/12/01 19:59:41;;;;;;;125.00;61.88;;;4.20;71.20;;;;;;5054552;28;20025;-43
2020/12/01 20:02:07;;;;;;;53.47;26.17;;;4.20;71.30;;;;;;5055730;28;20032;-45
2020/12/01 20:04:33;;;;;;;37.63;18.35;;;4.20;71.30;;;;;;5054828;28;20126;-45
2020/12/01 20:06:58;;;;;;;31.08;18.88;;;4.20;71.30;;;;;;5055564;28;20029;-44
2020/12/01 20:09:25;;;;;;;33.63;18.02;;;4.20;71.30;;;;;;5055037;28;20411;-44
2020/12/01 20:11:51;;;;;;;36.28;19.77;;;4.20;71.30;;;;;;5054742;28;20032;-45
2020/12/01 20:14:17;;;;;;;39.33;19.65;;;4.20;71.20;;;;;;5055351;28;20044;-47
2020/12/01 20:16:46;;;;;;;33.42;17.23;;;4.20;71.20;;;;;;5055523;28;20419;-43
2020/12/01 20:19:12;;;;;;;32.42;17.40;;;4.20;71.30;;;;;;5055348;28;20338;-43
2020/12/01 20:21:38;;;;;;;31.20;17.35;;;4.10;71.20;;;;;;5055099;28;20091;-46
2020/12/01 20:24:04;;;;;;;31.80;17.48;;;4.10;71.00;;;;;;5054969;28;20037;-45
2020/12/01 20:26:30;;;;;;;29.42;16.48;;;4.10;71.60;;;;;;5057443;28;20068;-46
2020/12/01 20:28:56;;;;;;;34.55;17.90;;;4.00;70.90;;;;;;5059000;28;20025;-44
2020/12/01 20:31:23;;;;;;;36.90;19.52;;;4.00;71.00;;;;;;5059885;28;20033;-45
2020/12/01 20:33:49;;;;;;;32.00;19.08;;;4.00;71.30;;;;;;5058850;28;20028;-45
2020/12/01 20:36:49;;;;;;;29.13;16.25;;;4.00;71.30;;;;;;5059315;28;20029;-44
2020/12/01 20:39:42;;;;;;;32.13;19.05;;;4.00;71.30;;;;;;5059169;28;20367;-44
2020/12/01 20:42:08;;;;;;;36.72;18.55;;;4.00;71.30;;;;;;5058615;28;20117;-44
2020/12/01 20:44:34;;;;;;;37.53;19.83;;;4.00;71.30;;;;;;5059048;28;20120;-46
2020/12/01 20:46:59;;;;;;;36.42;19.77;;;4.00;71.30;;;;;;5058959;28;20031;-44
2020/12/01 20:49:25;;;;;;;33.92;18.73;;;4.00;71.10;;;;;;5058074;28;20131;-45
2020/12/01 20:51:52;;;;;;;39.65;20.73;;;3.90;71.10;;;;;;5058805;28;20104;-44
2020/12/01 20:54:22;;;;;;;32.97;18.38;;;3.90;71.30;;;;;;5058243;28;20021;-45
2020/12/01 20:56:50;;;;;;;37.30;19.73;;;3.90;71.40;;;;;;5058364;28;20083;-45
2020/12/01 20:59:20;;;;;;;41.67;23.00;;;3.90;71.90;;;;;;5058698;28;20021;-44
2020/12/01 21:01:46;;;;;;;35.35;17.55;;;3.90;71.30;;;;;;5058849;28;20047;-45
2020/12/01 21:04:11;;;;;;;38.70;21.55;;;3.90;71.30;;;;;;5058164;28;20411;-44
2020/12/01 21:06:37;;;;;;;37.90;21.52;;;3.80;71.30;;;;;;5058516;28;20050;-44
2020/12/01 21:09:05;;;;;;;31.17;18.48;;;3.80;71.40;;;;;;5058111;28;20057;-46
2020/12/01 21:11:53;;;;;;;33.92;18.52;;;3.80;71.50;;;;;;5058112;28;20036;-46
2020/12/01 21:14:21;;;;;;;29.95;17.48;;;3.90;71.50;;;;;;5058773;28;20044;-45
2020/12/01 21:16:57;;;;;;;36.72;21.58;;;3.90;71.50;;;;;;5058294;28;20104;-44
2020/12/01 21:19:23;;;;;;;38.50;21.63;;;3.90;71.40;;;;;;5057819;28;20033;-45
2020/12/01 21:22:05;;;;;;;39.75;21.13;;;3.90;71.30;;;;;;5058437;28;20078;-44
2020/12/01 21:24:31;;;;;;;38.70;20.92;;;3.80;71.40;;;;;;5057824;28;20338;-45
2020/12/01 21:27:01;;;;;;;39.42;21.85;;;3.80;71.20;;;;;;5058282;28;20033;-45
2020/12/01 21:29:47;;;;;;;41.05;22.38;;;3.80;71.30;;;;;;5057892;28;20028;-46
2020/12/01 21:32:22;;;;;;;34.92;20.45;;;3.80;71.50;;;;;;5058388;28;20029;-44
2020/12/01 21:34:56;;;;;;;45.17;23.88;;;3.80;71.70;;;;;;5057857;28;20025;-45
2020/12/01 21:37:24;;;;;;;43.72;24.85;;;3.80;71.80;;;;;;5057602;28;20343;-44
2020/12/01 21:39:51;;;;;;;40.67;22.73;;;3.80;71.90;;;;;;5057581;28;20025;-44
2020/12/01 21:42:32;;;;;;;39.38;20.70;;;3.80;71.80;;;;;;5057734;28;20024;-44
2020/12/01 21:45:04;;;;;;;39.80;22.85;;;3.80;71.70;;;;;;5057993;28;20037;-45
2020/12/01 21:47:30;;;;;;;37.08;21.00;;;3.90;71.70;;;;;;5057447;28;20350;-44
2020/12/01 21:49:58;;;;;;;41.70;22.30;;;3.90;71.70;;;;;;5057483;28;20028;-45
2020/12/01 21:52:54;;;;;;;42.38;23.50;;;3.90;71.60;;;;;;5057727;28;20072;-46
2020/12/01 21:55:33;;;;;;;43.28;24.88;;;3.90;71.50;;;;;;5057312;28;20109;-44
2020/12/01 21:58:21;;;;;;;46.03;25.73;;;3.90;71.40;;;;;;5057683;28;20371;-45
2020/12/01 22:01:14;;;;;;;42.70;23.27;;;3.90;71.40;;;;;;5057571;28;20025;-44
2020/12/01 22:04:04;;;;;;;47.25;25.90;;;4.00;71.50;;;;;;5056607;28;20025;-45
2020/12/01 22:06:41;;;;;;;46.40;24.13;;;3.90;71.30;;;;;;5057391;28;20167;-45
2020/12/01 22:09:32;;;;;;;44.35;24.45;;;4.00;71.30;;;;;;5056306;28;20029;-45
2020/12/01 22:12:19;;;;;;;45.42;23.15;;;4.00;71.40;;;;;;5056804;28;20040;-44
2020/12/01 22:15:03;;;;;;;44.20;22.73;;;4.00;71.30;;;;;;5056333;28;20449;-46
2020/12/01 22:17:34;;;;;;;42.30;24.45;;;4.00;71.10;;;;;;5056320;28;20075;-46
2020/12/01 22:20:08;;;;;;;39.30;22.77;;;4.00;71.10;;;;;;5056509;28;20381;-45
2020/12/01 22:22:49;;;;;;;39.10;22.85;;;4.00;71.10;;;;;;5056062;28;20115;-44
2020/12/01 22:25:56;;;;;;;39.83;22.98;;;4.00;71.10;;;;;;5056634;28;20063;-45
2020/12/01 22:28:54;;;;;;;42.60;23.50;;;4.00;71.00;;;;;;5055612;28;20094;-45
2020/12/01 22:31:38;;;;;;;42.42;22.85;;;4.00;70.80;;;;;;5031662;28;20063;-45
2020/12/01 22:34:31;;;;;;;37.15;20.15;;;4.00;71.00;;;;;;5055153;28;20251;-47
2020/12/01 22:36:59;;;;;;;42.17;23.83;;;3.90;70.90;;;;;;5055565;28;20021;-45
2020/12/01 22:39:25;;;;;;;35.67;22.25;;;3.90;70.90;;;;;;5055102;28;20082;-44
2020/12/01 22:41:56;;;;;;;29.95;18.73;;;3.90;70.80;;;;;;5055430;28;20029;-44
2020/12/01 22:44:22;;;;;;;34.65;19.27;;;3.90;70.60;;;;;;5055552;28;20017;-48
2020/12/01 22:46:48;;;;;;;32.97;18.42;;;3.90;70.40;;;;;;5056483;28;20048;-45
2020/12/01 22:49:48;;;;;;;36.50;19.98;;;3.90;70.40;;;;;;5055490;28;20343;-45
2020/12/01 22:52:32;;;;;;;35.33;18.25;;;3.90;70.60;;;;;;5056713;28;20028;-45
2020/12/01 22:55:29;;;;;;;43.35;23.77;;;3.90;70.70;;;;;;5056576;28;20319;-45
2020/12/01 22:57:57;;;;;;;55.80;29.23;;;3.80;70.70;;;;;;5032748;28;20047;-45
2020/12/01 23:00:45;;;;;;;42.60;23.38;;;3.80;70.80;;;;;;5056280;28;20032;-45
2020/12/01 23:03:18;;;;;;;40.90;22.38;;;3.80;70.80;;;;;;5056245;28;20017;-45
2020/12/01 23:05:44;;;;;;;41.67;22.08;;;3.90;70.80;;;;;;5056029;28;20055;-46
2020/12/01 23:08:40;;;;;;;52.20;25.45;;;3.80;70.60;;;;;;5056065;28;20021;-46
2020/12/01 23:11:11;;;;;;;44.55;23.52;;;3.90;70.60;;;;;;5055449;28;20043;-48
2020/12/01 23:13:54;;;;;;;49.85;25.90;;;3.90;70.50;;;;;;5055848;28;20020;-45
2020/12/01 23:16:26;;;;;;;51.38;26.77;;;3.90;70.70;;;;;;5056466;28;20035;-45
2020/12/01 23:18:54;;;;;;;41.28;22.67;;;3.90;70.80;;;;;;5056145;28;20116;-44
2020/12/01 23:21:22;;;;;;;55.85;28.17;;;3.90;70.70;;;;;;5056576;28;20326;-46
2020/12/01 23:23:47;;;;;;;44.90;23.63;;;3.90;70.70;;;;;;5055438;28;20426;-45
2020/12/01 23:26:19;;;;;;;45.85;24.58;;;3.90;70.70;;;;;;5056226;28;20051;-46
2020/12/01 23:28:47;;;;;;;49.95;24.48;;;3.90;70.60;;;;;;5055676;28;20017;-46
2020/12/01 23:31:14;;;;;;;51.00;25.23;;;3.90;70.60;;;;;;5056342;28;20055;-44
2020/12/01 23:33:41;;;;;;;54.28;26.08;;;3.80;70.30;;;;;;5055550;28;20074;-44
2020/12/01 23:36:07;;;;;;;50.80;23.80;;;3.80;70.50;;;;;;5056355;28;20437;-47
2020/12/01 23:38:35;;;;;;;37.20;20.95;;;3.80;70.70;;;;;;5055282;28;20021;-44
2020/12/01 23:41:04;;;;;;;43.63;23.30;;;3.80;70.70;;;;;;5055864;28;20185;-47
2020/12/01 23:43:48;;;;;;;45.67;23.33;;;3.80;70.90;;;;;;5055672;28;20024;-44
2020/12/01 23:46:28;;;;;;;40.33;20.83;;;3.70;71.00;;;;;;5055769;28;20044;-44
2020/12/01 23:48:57;;;;;;;44.42;23.00;;;3.70;71.10;;;;;;5055906;28;20025;-45
2020/12/01 23:51:33;;;;;;;36.22;20.10;;;3.70;71.20;;;;;;5056262;28;20072;-44
2020/12/01 23:53:58;;;;;;;41.13;20.35;;;3.70;71.40;;;;;;5054983;28;20411;-44
2020/12/01 23:56:24;;;;;;;36.00;19.83;;;3.70;71.40;;;;;;5055837;28;20107;-44
2020/12/01 23:58:51;;;;;;;36.67;19.77;;;3.70;71.50;;;;;;5055209;28;20312;-46
